sim
Sign-in with your pilot id or email,
or register
Callsign
Passwort

Schedule Details

Flight Number: OEO3653
Departure: Luxor International Airport (HELX) at 09:10
Arrival: Munich Airport (EDDM) at 13:55

Weather Information
Getting current METAR information for HELX 181200Z 34006KT CAVOK 43/20 Q1005 NOSIG
Getting current METAR information for EDDM 181250Z 07010KT 020V120 CAVOK 19/09 Q1024 NOSIG

Schedule Frequency

Route Map